sensor_id;sensor_type;location;lat;lon;timestamp;pressure;altitude;pressure_sealevel;temperature;humidity
47522;BME280;32291;52.010;4.446;2023-04-29T00:00:00;78827.09;;;-144.67;100.00
47522;BME280;32291;52.010;4.446;2023-04-29T00:01:02;78835.66;;;-144.67;100.00
47522;BME280;32291;52.010;4.446;2023-04-29T00:02:04;78827.09;;;-144.67;100.00
47522;BME280;32291;52.010;4.446;2023-04-29T00:03:06;78831.38;;;-144.67;100.00
47522;BME280;32291;52.010;4.446;2023-04-29T00:04:09;78827.09;;;-144.67;100.00
47522;BME280;32291;52.010;4.446;2023-04-29T00:05:10;78822.81;;;-144.67;100.00
47522;BME280;32291;52.010;4.446;2023-04-29T00:06:12;78816.41;;;-144.67;100.00
47522;BME280;32291;52.010;4.446;2023-04-29T00:07:14;78807.81;;;-144.67;100.00
47522;BME280;32291;52.010;4.446;2023-04-29T00:08:16;78809.97;;;-144.67;100.00
47522;BME280;32291;52.010;4.446;2023-04-29T00:09:18;78809.97;;;-144.67;100.00
47522;BME280;32291;52.010;4.446;2023-04-29T00:10:20;78818.53;;;-144.67;100.00
47522;BME280;32291;52.010;4.446;2023-04-29T00:11:21;78831.38;;;-144.67;100.00
47522;BME280;32291;52.010;4.446;2023-04-29T00:12:24;78822.81;;;-144.67;100.00
47522;BME280;32291;52.010;4.446;2023-04-29T00:13:26;78827.09;;;-144.67;100.00
47522;BME280;32291;52.010;4.446;2023-04-29T00:14:28;78833.53;;;-144.67;100.00
47522;BME280;32291;52.010;4.446;2023-04-29T00:15:30;78842.09;;;-144.67;100.00
47522;BME280;32291;52.010;4.446;2023-04-29T00:16:32;78850.66;;;-144.67;100.00
47522;BME280;32291;52.010;4.446;2023-04-29T00:17:34;78835.66;;;-144.67;100.00
47522;BME280;32291;52.010;4.446;2023-04-29T00:18:37;78839.94;;;-144.67;100.00
47522;BME280;32291;52.010;4.446;2023-04-29T00:19:39;78844.22;;;-144.67;100.00
47522;BME280;32291;52.010;4.446;2023-04-29T00:20:42;78839.94;;;-144.67;100.00
47522;BME280;32291;52.010;4.446;2023-04-29T00:21:43;78835.66;;;-144.67;100.00
47522;BME280;32291;52.010;4.446;2023-04-29T00:22:45;78844.22;;;-144.67;100.00
47522;BME280;32291;52.010;4.446;2023-04-29T00:23:47;78842.09;;;-144.67;100.00
47522;BME280;32291;52.010;4.446;2023-04-29T00:24:49;78850.66;;;-144.67;100.00
47522;BME280;32291;52.010;4.446;2023-04-29T00:25:51;78854.94;;;-144.67;100.00
47522;BME280;32291;52.010;4.446;2023-04-29T00:26:54;78854.94;;;-144.67;100.00
47522;BME280;32291;52.010;4.446;2023-04-29T00:27:57;78861.34;;;-144.67;100.00
47522;BME280;32291;52.010;4.446;2023-04-29T00:29:07;78863.50;;;-144.67;100.00
47522;BME280;32291;52.010;4.446;2023-04-29T00:30:09;78859.22;;;-144.67;100.00
47522;BME280;32291;52.010;4.446;2023-04-29T00:31:11;78854.94;;;-144.67;100.00
47522;BME280;32291;52.010;4.446;2023-04-29T00:32:13;78848.50;;;-144.67;100.00
47522;BME280;32291;52.010;4.446;2023-04-29T00:33:15;78852.78;;;-144.67;100.00
47522;BME280;32291;52.010;4.446;2023-04-29T00:34:17;78848.50;;;-144.67;100.00
47522;BME280;32291;52.010;4.446;2023-04-29T00:35:20;78848.50;;;-144.67;100.00
47522;BME280;32291;52.010;4.446;2023-04-29T00:36:22;78848.50;;;-144.67;100.00
47522;BME280;32291;52.010;4.446;2023-04-29T00:37:24;78861.34;;;-144.67;100.00
47522;BME280;32291;52.010;4.446;2023-04-29T00:38:26;78852.78;;;-144.67;100.00
47522;BME280;32291;52.010;4.446;2023-04-29T00:39:29;78852.78;;;-144.67;100.00
47522;BME280;32291;52.010;4.446;2023-04-29T00:40:31;78863.50;;;-144.67;100.00
47522;BME280;32291;52.010;4.446;2023-04-29T00:41:33;78852.78;;;-144.67;100.00
47522;BME280;32291;52.010;4.446;2023-04-29T00:42:35;78865.66;;;-144.67;100.00
47522;BME280;32291;52.010;4.446;2023-04-29T00:43:37;78874.22;;;-144.67;100.00
47522;BME280;32291;52.010;4.446;2023-04-29T00:44:39;78867.78;;;-144.67;100.00
47522;BME280;32291;52.010;4.446;2023-04-29T00:45:41;78878.50;;;-144.67;100.00
47522;BME280;32291;52.010;4.446;2023-04-29T00:46:45;78859.22;;;-144.67;100.00
47522;BME280;32291;52.010;4.446;2023-04-29T00:47:47;78872.06;;;-144.67;100.00
47522;BME280;32291;52.010;4.446;2023-04-29T00:48:49;78865.66;;;-144.67;100.00
47522;BME280;32291;52.010;4.446;2023-04-29T00:49:51;78863.50;;;-144.67;100.00
47522;BME280;32291;52.010;4.446;2023-04-29T00:50:53;78863.50;;;-144.67;100.00
47522;BME280;32291;52.010;4.446;2023-04-29T00:51:56;78874.22;;;-144.67;100.00
47522;BME280;32291;52.010;4.446;2023-04-29T00:52:59;78874.22;;;-144.67;100.00
47522;BME280;32291;52.010;4.446;2023-04-29T00:54:03;78878.50;;;-144.67;100.00
47522;BME280;32291;52.010;4.446;2023-04-29T00:55:06;78876.34;;;-144.67;100.00
47522;BME280;32291;52.010;4.446;2023-04-29T00:56:09;78878.50;;;-144.67;100.00
47522;BME280;32291;52.010;4.446;2023-04-29T00:57:12;78878.50;;;-144.67;100.00
47522;BME280;32291;52.010;4.446;2023-04-29T00:58:14;78869.94;;;-144.67;100.00
47522;BME280;32291;52.010;4.446;2023-04-29T00:59:18;78863.50;;;-144.67;100.00
47522;BME280;32291;52.010;4.446;2023-04-29T01:00:21;78874.22;;;-144.67;100.00
47522;BME280;32291;52.010;4.446;2023-04-29T01:01:23;78872.06;;;-144.67;100.00
47522;BME280;32291;52.010;4.446;2023-04-29T01:02:25;78878.50;;;-144.67;100.00
47522;BME280;32291;52.010;4.446;2023-04-29T01:03:30;78884.91;;;-144.67;100.00
47522;BME280;32291;52.010;4.446;2023-04-29T01:04:33;78878.50;;;-144.67;100.00
47522;BME280;32291;52.010;4.446;2023-04-29T01:05:35;78887.06;;;-144.67;100.00
47522;BME280;32291;52.010;4.446;2023-04-29T01:07:15;78891.34;;;-144.67;100.00
47522;BME280;32291;52.010;4.446;2023-04-29T01:10:05;78895.63;;;-144.67;100.00
47522;BME280;32291;52.010;4.446;2023-04-29T01:11:11;78899.91;;;-144.67;100.00
47522;BME280;32291;52.010;4.446;2023-04-29T01:12:25;78904.19;;;-144.67;100.00
47522;BME280;32291;52.010;4.446;2023-04-29T01:13:59;78912.75;;;-144.67;100.00
47522;BME280;32291;52.010;4.446;2023-04-29T01:15:42;78908.47;;;-144.67;100.00
47522;BME280;32291;52.010;4.446;2023-04-29T01:16:51;78906.34;;;-144.67;100.00
47522;BME280;32291;52.010;4.446;2023-04-29T01:18:25;78917.03;;;-144.67;100.00
47522;BME280;32291;52.010;4.446;2023-04-29T01:19:47;78902.03;;;-144.67;100.00
47522;BME280;32291;52.010;4.446;2023-04-29T01:20:51;78912.75;;;-144.67;100.00
47522;BME280;32291;52.010;4.446;2023-04-29T01:21:53;78921.31;;;-144.67;100.00
47522;BME280;32291;52.010;4.446;2023-04-29T01:22:55;78917.03;;;-144.67;100.00
47522;BME280;32291;52.010;4.446;2023-04-29T01:23:57;78912.75;;;-144.67;100.00
47522;BME280;32291;52.010;4.446;2023-04-29T01:25:00;78914.91;;;-144.67;100.00
47522;BME280;32291;52.010;4.446;2023-04-29T01:26:02;78919.19;;;-144.67;100.00
47522;BME280;32291;52.010;4.446;2023-04-29T01:27:27;78919.19;;;-144.67;100.00
47522;BME280;32291;52.010;4.446;2023-04-29T01:30:53;78919.19;;;-144.67;100.00
47522;BME280;32291;52.010;4.446;2023-04-29T01:32:05;78917.03;;;-144.67;100.00
47522;BME280;32291;52.010;4.446;2023-04-29T01:34:44;78912.75;;;-144.67;100.00
47522;BME280;32291;52.010;4.446;2023-04-29T01:37:45;78912.75;;;-144.67;100.00
47522;BME280;32291;52.010;4.446;2023-04-29T01:39:10;78917.03;;;-144.67;100.00
47522;BME280;32291;52.010;4.446;2023-04-29T01:40:31;78914.91;;;-144.67;100.00
47522;BME280;32291;52.010;4.446;2023-04-29T01:43:03;78912.75;;;-144.67;100.00
47522;BME280;32291;52.010;4.446;2023-04-29T01:44:14;78910.63;;;-144.67;100.00
47522;BME280;32291;52.010;4.446;2023-04-29T01:45:18;78917.03;;;-144.67;100.00
47522;BME280;32291;52.010;4.446;2023-04-29T01:46:22;78908.47;;;-144.67;100.00
47522;BME280;32291;52.010;4.446;2023-04-29T01:47:24;78908.47;;;-144.67;100.00
47522;BME280;32291;52.010;4.446;2023-04-29T01:48:27;78908.47;;;-144.67;100.00
47522;BME280;32291;52.010;4.446;2023-04-29T01:49:30;78908.47;;;-144.67;100.00
47522;BME280;32291;52.010;4.446;2023-04-29T01:50:35;78910.63;;;-144.67;100.00
47522;BME280;32291;52.010;4.446;2023-04-29T01:51:37;78912.75;;;-144.67;100.00
47522;BME280;32291;52.010;4.446;2023-04-29T01:52:39;78910.63;;;-144.67;100.00
47522;BME280;32291;52.010;4.446;2023-04-29T01:53:42;78912.75;;;-144.67;100.00
47522;BME280;32291;52.010;4.446;2023-04-29T01:54:45;78899.91;;;-144.67;100.00
47522;BME280;32291;52.010;4.446;2023-04-29T01:55:47;78904.19;;;-144.67;100.00
47522;BME280;32291;52.010;4.446;2023-04-29T01:56:49;78912.75;;;-144.67;100.00
47522;BME280;32291;52.010;4.446;2023-04-29T01:57:52;78910.63;;;-144.67;100.00
47522;BME280;32291;52.010;4.446;2023-04-29T01:58:55;78908.47;;;-144.67;100.00
47522;BME280;32291;52.010;4.446;2023-04-29T01:59:57;78904.19;;;-144.67;100.00
47522;BME280;32291;52.010;4.446;2023-04-29T02:00:59;78906.34;;;-144.67;100.00
47522;BME280;32291;52.010;4.446;2023-04-29T02:02:01;78914.91;;;-144.67;100.00
47522;BME280;32291;52.010;4.446;2023-04-29T02:03:04;78904.19;;;-144.67;100.00
47522;BME280;32291;52.010;4.446;2023-04-29T02:04:06;78908.47;;;-144.67;100.00
47522;BME280;32291;52.010;4.446;2023-04-29T02:05:08;78917.03;;;-144.67;100.00
47522;BME280;32291;52.010;4.446;2023-04-29T02:06:10;78908.47;;;-144.67;100.00
47522;BME280;32291;52.010;4.446;2023-04-29T02:07:12;78904.19;;;-144.67;100.00
47522;BME280;32291;52.010;4.446;2023-04-29T02:08:14;78910.63;;;-144.67;100.00
47522;BME280;32291;52.010;4.446;2023-04-29T02:09:16;78904.19;;;-144.67;100.00
47522;BME280;32291;52.010;4.446;2023-04-29T02:10:18;78910.63;;;-144.67;100.00
47522;BME280;32291;52.010;4.446;2023-04-29T02:11:20;78912.75;;;-144.67;100.00
47522;BME280;32291;52.010;4.446;2023-04-29T02:12:22;78904.19;;;-144.67;100.00
47522;BME280;32291;52.010;4.446;2023-04-29T02:13:25;78908.47;;;-144.67;100.00
47522;BME280;32291;52.010;4.446;2023-04-29T02:14:27;78906.34;;;-144.67;100.00
47522;BME280;32291;52.010;4.446;2023-04-29T02:15:29;78914.91;;;-144.67;100.00
47522;BME280;32291;52.010;4.446;2023-04-29T02:16:31;78906.34;;;-144.67;100.00
47522;BME280;32291;52.010;4.446;2023-04-29T02:17:35;78914.91;;;-144.67;100.00
47522;BME280;32291;52.010;4.446;2023-04-29T02:18:37;78917.03;;;-144.67;100.00
47522;BME280;32291;52.010;4.446;2023-04-29T02:19:39;78925.59;;;-144.67;100.00
47522;BME280;32291;52.010;4.446;2023-04-29T02:20:42;78925.59;;;-144.67;100.00
47522;BME280;32291;52.010;4.446;2023-04-29T02:21:43;78919.19;;;-144.67;100.00
47522;BME280;32291;52.010;4.446;2023-04-29T02:22:46;78923.47;;;-144.67;100.00
47522;BME280;32291;52.010;4.446;2023-04-29T02:23:47;78921.31;;;-144.67;100.00
47522;BME280;32291;52.010;4.446;2023-04-29T02:24:49;78917.03;;;-144.67;100.00
47522;BME280;32291;52.010;4.446;2023-04-29T02:25:50;78921.31;;;-144.67;100.00
47522;BME280;32291;52.010;4.446;2023-04-29T02:26:52;78925.59;;;-144.67;100.00
47522;BME280;32291;52.010;4.446;2023-04-29T02:27:54;78921.31;;;-144.67;100.00
47522;BME280;32291;52.010;4.446;2023-04-29T02:28:56;78921.31;;;-144.67;100.00
47522;BME280;32291;52.010;4.446;2023-04-29T02:29:57;78925.59;;;-144.67;100.00
47522;BME280;32291;52.010;4.446;2023-04-29T02:30:59;78917.03;;;-144.67;100.00
47522;BME280;32291;52.010;4.446;2023-04-29T02:32:01;78914.91;;;-144.67;100.00
47522;BME280;32291;52.010;4.446;2023-04-29T02:33:04;78921.31;;;-144.67;100.00
47522;BME280;32291;52.010;4.446;2023-04-29T02:34:05;78925.59;;;-144.67;100.00
47522;BME280;32291;52.010;4.446;2023-04-29T02:35:07;78923.47;;;-144.67;100.00
47522;BME280;32291;52.010;4.446;2023-04-29T02:36:09;78932.03;;;-144.67;100.00
47522;BME280;32291;52.010;4.446;2023-04-29T02:37:11;78934.16;;;-144.67;100.00
47522;BME280;32291;52.010;4.446;2023-04-29T02:38:13;78923.47;;;-144.67;100.00
47522;BME280;32291;52.010;4.446;2023-04-29T02:39:15;78934.16;;;-144.67;100.00
47522;BME280;32291;52.010;4.446;2023-04-29T02:40:17;78929.88;;;-144.67;100.00
47522;BME280;32291;52.010;4.446;2023-04-29T02:41:19;78923.47;;;-144.67;100.00
47522;BME280;32291;52.010;4.446;2023-04-29T02:42:21;78936.31;;;-144.67;100.00
47522;BME280;32291;52.010;4.446;2023-04-29T02:43:23;78947.03;;;-144.67;100.00
47522;BME280;32291;52.010;4.446;2023-04-29T02:44:25;78938.44;;;-144.67;100.00
47522;BME280;32291;52.010;4.446;2023-04-29T02:45:27;78932.03;;;-144.67;100.00
47522;BME280;32291;52.010;4.446;2023-04-29T02:46:29;78932.03;;;-144.67;100.00
47522;BME280;32291;52.010;4.446;2023-04-29T02:47:32;78936.31;;;-144.67;100.00
47522;BME280;32291;52.010;4.446;2023-04-29T02:48:35;78934.16;;;-144.67;100.00
47522;BME280;32291;52.010;4.446;2023-04-29T02:49:37;78932.03;;;-144.67;100.00
47522;BME280;32291;52.010;4.446;2023-04-29T02:50:39;78932.03;;;-144.67;100.00
47522;BME280;32291;52.010;4.446;2023-04-29T02:51:40;78929.88;;;-144.67;100.00
47522;BME280;32291;52.010;4.446;2023-04-29T02:52:42;78921.31;;;-144.67;100.00
47522;BME280;32291;52.010;4.446;2023-04-29T02:53:44;78932.03;;;-144.67;100.00
47522;BME280;32291;52.010;4.446;2023-04-29T02:54:46;78923.47;;;-144.67;100.00
47522;BME280;32291;52.010;4.446;2023-04-29T02:55:48;78925.59;;;-144.67;100.00
47522;BME280;32291;52.010;4.446;2023-04-29T02:56:50;78925.59;;;-144.67;100.00
47522;BME280;32291;52.010;4.446;2023-04-29T02:57:54;78936.31;;;-144.67;100.00
47522;BME280;32291;52.010;4.446;2023-04-29T02:58:56;78934.16;;;-144.67;100.00
47522;BME280;32291;52.010;4.446;2023-04-29T02:59:58;78940.59;;;-144.67;100.00
47522;BME280;32291;52.010;4.446;2023-04-29T03:01:00;78938.44;;;-144.67;100.00
47522;BME280;32291;52.010;4.446;2023-04-29T03:02:01;78936.31;;;-144.67;100.00
47522;BME280;32291;52.010;4.446;2023-04-29T03:03:03;78932.03;;;-144.67;100.00
47522;BME280;32291;52.010;4.446;2023-04-29T03:04:05;78938.44;;;-144.67;100.00
47522;BME280;32291;52.010;4.446;2023-04-29T03:05:07;78944.88;;;-144.67;100.00
47522;BME280;32291;52.010;4.446;2023-04-29T03:06:09;78938.44;;;-144.67;100.00
47522;BME280;32291;52.010;4.446;2023-04-29T03:07:11;78942.72;;;-144.67;100.00
47522;BME280;32291;52.010;4.446;2023-04-29T03:08:12;78934.16;;;-144.67;100.00
47522;BME280;32291;52.010;4.446;2023-04-29T03:09:14;78951.31;;;-144.67;100.00
47522;BME280;32291;52.010;4.446;2023-04-29T03:10:15;78947.03;;;-144.67;100.00
47522;BME280;32291;52.010;4.446;2023-04-29T03:11:19;78938.44;;;-144.67;100.00
47522;BME280;32291;52.010;4.446;2023-04-29T03:12:21;78942.72;;;-144.67;100.00
47522;BME280;32291;52.010;4.446;2023-04-29T03:13:23;78942.72;;;-144.67;100.00
47522;BME280;32291;52.010;4.446;2023-04-29T03:14:25;78934.16;;;-144.67;100.00
47522;BME280;32291;52.010;4.446;2023-04-29T03:15:27;78936.31;;;-144.67;100.00
47522;BME280;32291;52.010;4.446;2023-04-29T03:16:29;78938.44;;;-144.67;100.00
47522;BME280;32291;52.010;4.446;2023-04-29T03:17:32;78942.72;;;-144.67;100.00
47522;BME280;32291;52.010;4.446;2023-04-29T03:18:35;78951.31;;;-144.67;100.00
47522;BME280;32291;52.010;4.446;2023-04-29T03:19:37;78947.03;;;-144.67;100.00
47522;BME280;32291;52.010;4.446;2023-04-29T03:20:38;78951.31;;;-144.67;100.00
47522;BME280;32291;52.010;4.446;2023-04-29T03:21:41;78957.72;;;-144.67;100.00
47522;BME280;32291;52.010;4.446;2023-04-29T03:22:42;78955.59;;;-144.67;100.00
47522;BME280;32291;52.010;4.446;2023-04-29T03:23:44;78951.31;;;-144.67;100.00
47522;BME280;32291;52.010;4.446;2023-04-29T03:24:46;78951.31;;;-144.67;100.00
47522;BME280;32291;52.010;4.446;2023-04-29T03:25:48;78955.59;;;-144.67;100.00
47522;BME280;32291;52.010;4.446;2023-04-29T03:26:50;78953.44;;;-144.67;100.00
47522;BME280;32291;52.010;4.446;2023-04-29T03:27:55;78947.03;;;-144.67;100.00
47522;BME280;32291;52.010;4.446;2023-04-29T03:28:57;78959.88;;;-144.67;100.00
47522;BME280;32291;52.010;4.446;2023-04-29T03:29:59;78955.59;;;-144.67;100.00
47522;BME280;32291;52.010;4.446;2023-04-29T03:31:01;78964.16;;;-144.67;100.00
47522;BME280;32291;52.010;4.446;2023-04-29T03:32:04;78964.16;;;-144.67;100.00
47522;BME280;32291;52.010;4.446;2023-04-29T03:33:06;78962.00;;;-144.67;100.00
47522;BME280;32291;52.010;4.446;2023-04-29T03:34:08;78959.88;;;-144.67;100.00
47522;BME280;32291;52.010;4.446;2023-04-29T03:35:09;78959.88;;;-144.67;100.00
47522;BME280;32291;52.010;4.446;2023-04-29T03:36:12;78959.88;;;-144.67;100.00
47522;BME280;32291;52.010;4.446;2023-04-29T03:37:14;78955.59;;;-144.67;100.00
47522;BME280;32291;52.010;4.446;2023-04-29T03:38:17;78949.16;;;-144.67;100.00
47522;BME280;32291;52.010;4.446;2023-04-29T03:39:19;78949.16;;;-144.67;100.00
47522;BME280;32291;52.010;4.446;2023-04-29T03:40:21;78947.03;;;-144.67;100.00
47522;BME280;32291;52.010;4.446;2023-04-29T03:41:22;78944.88;;;-144.67;100.00
47522;BME280;32291;52.010;4.446;2023-04-29T03:42:24;78949.16;;;-144.67;100.00
47522;BME280;32291;52.010;4.446;2023-04-29T03:43:26;78949.16;;;-144.67;100.00
47522;BME280;32291;52.010;4.446;2023-04-29T03:44:29;78953.44;;;-144.67;100.00
47522;BME280;32291;52.010;4.446;2023-04-29T03:45:31;78955.59;;;-144.67;100.00
47522;BME280;32291;52.010;4.446;2023-04-29T03:46:32;78955.59;;;-144.67;100.00
47522;BME280;32291;52.010;4.446;2023-04-29T03:47:34;78947.03;;;-144.67;100.00
47522;BME280;32291;52.010;4.446;2023-04-29T03:48:36;78953.44;;;-144.67;100.00
47522;BME280;32291;52.010;4.446;2023-04-29T03:49:38;78964.16;;;-144.67;100.00
47522;BME280;32291;52.010;4.446;2023-04-29T03:50:40;78959.88;;;-144.67;100.00
47522;BME280;32291;52.010;4.446;2023-04-29T03:51:42;78959.88;;;-144.67;100.00
47522;BME280;32291;52.010;4.446;2023-04-29T03:52:45;78964.16;;;-144.67;100.00
47522;BME280;32291;52.010;4.446;2023-04-29T03:53:47;78964.16;;;-144.67;100.00
47522;BME280;32291;52.010;4.446;2023-04-29T03:54:49;78966.28;;;-144.67;100.00
47522;BME280;32291;52.010;4.446;2023-04-29T03:55:51;78964.16;;;-144.67;100.00
47522;BME280;32291;52.010;4.446;2023-04-29T03:56:53;78964.16;;;-144.67;100.00
47522;BME280;32291;52.010;4.446;2023-04-29T03:57:56;78964.16;;;-144.67;100.00
47522;BME280;32291;52.010;4.446;2023-04-29T03:58:57;78964.16;;;-144.67;100.00
47522;BME280;32291;52.010;4.446;2023-04-29T03:59:59;78966.28;;;-144.67;100.00
47522;BME280;32291;52.010;4.446;2023-04-29T04:01:00;78972.72;;;-144.67;100.00
47522;BME280;32291;52.010;4.446;2023-04-29T04:02:02;78974.84;;;-144.67;100.00
47522;BME280;32291;52.010;4.446;2023-04-29T04:03:04;78974.84;;;-144.67;100.00
47522;BME280;32291;52.010;4.446;2023-04-29T04:04:06;78968.44;;;-144.67;100.00
47522;BME280;32291;52.010;4.446;2023-04-29T04:05:08;78953.44;;;-144.67;100.00
47522;BME280;32291;52.010;4.446;2023-04-29T04:06:11;78951.31;;;-144.67;100.00
47522;BME280;32291;52.010;4.446;2023-04-29T04:07:13;78955.59;;;-144.67;100.00
47522;BME280;32291;52.010;4.446;2023-04-29T04:08:14;78951.31;;;-144.67;100.00
47522;BME280;32291;52.010;4.446;2023-04-29T04:09:19;78944.88;;;-144.67;100.00
47522;BME280;32291;52.010;4.446;2023-04-29T04:10:21;78951.31;;;-144.67;100.00
47522;BME280;32291;52.010;4.446;2023-04-29T04:11:22;78949.16;;;-144.67;100.00
47522;BME280;32291;52.010;4.446;2023-04-29T04:12:24;78942.72;;;-144.67;100.00
47522;BME280;32291;52.010;4.446;2023-04-29T04:13:25;78942.72;;;-144.67;100.00
47522;BME280;32291;52.010;4.446;2023-04-29T04:14:28;78947.03;;;-144.67;100.00
47522;BME280;32291;52.010;4.446;2023-04-29T04:15:30;78955.59;;;-144.67;100.00
47522;BME280;32291;52.010;4.446;2023-04-29T04:16:32;78959.88;;;-144.67;100.00
47522;BME280;32291;52.010;4.446;2023-04-29T04:17:34;78951.31;;;-144.67;100.00
47522;BME280;32291;52.010;4.446;2023-04-29T04:18:37;78968.44;;;-144.67;100.00
47522;BME280;32291;52.010;4.446;2023-04-29T04:19:39;78964.16;;;-144.67;100.00
47522;BME280;32291;52.010;4.446;2023-04-29T04:20:41;78968.44;;;-144.67;100.00
47522;BME280;32291;52.010;4.446;2023-04-29T04:21:43;78970.56;;;-144.67;100.00
47522;BME280;32291;52.010;4.446;2023-04-29T04:22:44;78972.72;;;-144.67;100.00
47522;BME280;32291;52.010;4.446;2023-04-29T04:23:46;78972.72;;;-144.67;100.00
47522;BME280;32291;52.010;4.446;2023-04-29T04:24:48;78977.00;;;-144.67;100.00
47522;BME280;32291;52.010;4.446;2023-04-29T04:25:50;78966.28;;;-144.67;100.00
47522;BME280;32291;52.010;4.446;2023-04-29T04:26:56;78972.72;;;-144.67;100.00
47522;BME280;32291;52.010;4.446;2023-04-29T04:27:58;78983.41;;;-144.67;100.00
47522;BME280;32291;52.010;4.446;2023-04-29T04:29:00;78974.84;;;-144.67;100.00
47522;BME280;32291;52.010;4.446;2023-04-29T04:30:03;78972.72;;;-144.67;100.00
47522;BME280;32291;52.010;4.446;2023-04-29T04:31:04;78977.00;;;-144.67;100.00
47522;BME280;32291;52.010;4.446;2023-04-29T04:32:06;78979.13;;;-144.67;100.00
47522;BME280;32291;52.010;4.446;2023-04-29T04:33:08;78985.56;;;-144.67;100.00
47522;BME280;32291;52.010;4.446;2023-04-29T04:34:11;78977.00;;;-144.67;100.00
47522;BME280;32291;52.010;4.446;2023-04-29T04:35:13;78972.72;;;-144.67;100.00
47522;BME280;32291;52.010;4.446;2023-04-29T04:36:15;78977.00;;;-144.67;100.00
47522;BME280;32291;52.010;4.446;2023-04-29T04:37:17;78981.28;;;-144.67;100.00
47522;BME280;32291;52.010;4.446;2023-04-29T04:38:19;78983.41;;;-144.67;100.00
47522;BME280;32291;52.010;4.446;2023-04-29T04:39:21;78985.56;;;-144.67;100.00
47522;BME280;32291;52.010;4.446;2023-04-29T04:40:22;78989.84;;;-144.67;100.00
47522;BME280;32291;52.010;4.446;2023-04-29T04:41:24;78994.13;;;-144.67;100.00
47522;BME280;32291;52.010;4.446;2023-04-29T04:42:27;78981.28;;;-144.67;100.00
47522;BME280;32291;52.010;4.446;2023-04-29T04:43:29;78981.28;;;-144.67;100.00
47522;BME280;32291;52.010;4.446;2023-04-29T04:44:31;78979.13;;;-144.67;100.00
47522;BME280;32291;52.010;4.446;2023-04-29T04:45:33;78981.28;;;-144.67;100.00
47522;BME280;32291;52.010;4.446;2023-04-29T04:46:35;78981.28;;;-144.67;100.00
47522;BME280;32291;52.010;4.446;2023-04-29T04:47:39;78981.28;;;-144.67;100.00
47522;BME280;32291;52.010;4.446;2023-04-29T04:48:42;78977.00;;;-144.67;100.00
47522;BME280;32291;52.010;4.446;2023-04-29T04:49:44;78983.41;;;-144.67;100.00
47522;BME280;32291;52.010;4.446;2023-04-29T04:50:45;78979.13;;;-144.67;100.00
47522;BME280;32291;52.010;4.446;2023-04-29T04:51:47;78974.84;;;-144.67;100.00
47522;BME280;32291;52.010;4.446;2023-04-29T04:52:49;78974.84;;;-144.67;100.00
47522;BME280;32291;52.010;4.446;2023-04-29T04:53:50;78981.28;;;-144.67;100.00
47522;BME280;32291;52.010;4.446;2023-04-29T04:54:52;78985.56;;;-144.67;100.00
47522;BME280;32291;52.010;4.446;2023-04-29T04:55:54;78989.84;;;-144.67;100.00
47522;BME280;32291;52.010;4.446;2023-04-29T04:56:56;78987.69;;;-144.67;100.00
47522;BME280;32291;52.010;4.446;2023-04-29T04:57:58;78989.84;;;-144.67;100.00
47522;BME280;32291;52.010;4.446;2023-04-29T04:58:59;78996.25;;;-144.67;100.00
47522;BME280;32291;52.010;4.446;2023-04-29T05:00:01;78996.25;;;-144.67;100.00
47522;BME280;32291;52.010;4.446;2023-04-29T05:01:04;78994.13;;;-144.67;100.00
47522;BME280;32291;52.010;4.446;2023-04-29T05:02:06;78991.97;;;-144.67;100.00
47522;BME280;32291;52.010;4.446;2023-04-29T05:03:09;78989.84;;;-144.67;100.00
47522;BME280;32291;52.010;4.446;2023-04-29T05:04:10;78987.69;;;-144.67;100.00
47522;BME280;32291;52.010;4.446;2023-04-29T05:05:12;78985.56;;;-144.67;100.00
47522;BME280;32291;52.010;4.446;2023-04-29T05:06:14;78989.84;;;-144.67;100.00
47522;BME280;32291;52.010;4.446;2023-04-29T05:07:15;78989.84;;;-144.67;100.00
47522;BME280;32291;52.010;4.446;2023-04-29T05:08:17;78985.56;;;-144.67;100.00
47522;BME280;32291;52.010;4.446;2023-04-29T05:09:19;78989.84;;;-144.67;100.00
47522;BME280;32291;52.010;4.446;2023-04-29T05:10:20;78985.56;;;-144.67;100.00
47522;BME280;32291;52.010;4.446;2023-04-29T05:11:26;78985.56;;;-144.67;100.00
47522;BME280;32291;52.010;4.446;2023-04-29T05:12:28;78981.28;;;-144.67;100.00
47522;BME280;32291;52.010;4.446;2023-04-29T05:13:33;78994.13;;;-144.67;100.00
47522;BME280;32291;52.010;4.446;2023-04-29T05:14:35;78994.13;;;-144.67;100.00
47522;BME280;32291;52.010;4.446;2023-04-29T05:15:37;78994.13;;;-144.67;100.00
47522;BME280;32291;52.010;4.446;2023-04-29T05:16:38;78994.13;;;-144.67;100.00
47522;BME280;32291;52.010;4.446;2023-04-29T05:17:40;78987.69;;;-144.67;100.00
47522;BME280;32291;52.010;4.446;2023-04-29T05:18:41;78998.41;;;-144.67;100.00
47522;BME280;32291;52.010;4.446;2023-04-29T05:19:45;78983.41;;;-144.67;100.00
47522;BME280;32291;52.010;4.446;2023-04-29T05:20:47;78985.56;;;-144.67;100.00
47522;BME280;32291;52.010;4.446;2023-04-29T05:21:49;78977.00;;;-144.67;100.00
47522;BME280;32291;52.010;4.446;2023-04-29T05:22:52;78989.84;;;-144.67;100.00
47522;BME280;32291;52.010;4.446;2023-04-29T05:23:54;78994.13;;;-144.67;100.00
47522;BME280;32291;52.010;4.446;2023-04-29T05:24:55;78985.56;;;-144.67;100.00
47522;BME280;32291;52.010;4.446;2023-04-29T05:26:03;78985.56;;;-144.67;100.00
47522;BME280;32291;52.010;4.446;2023-04-29T05:27:04;78981.28;;;-144.67;100.00
47522;BME280;32291;52.010;4.446;2023-04-29T05:28:06;78985.56;;;-144.67;100.00
47522;BME280;32291;52.010;4.446;2023-04-29T05:29:11;78987.69;;;-144.67;100.00
47522;BME280;32291;52.010;4.446;2023-04-29T05:30:14;78989.84;;;-144.67;100.00